createdAt,value
2022-11-14T00:00:03.133Z,7.64
2022-11-14T00:02:49.909Z,7.76
2022-11-14T00:05:40.664Z,7.65
2022-11-14T00:08:27.508Z,7.69
2022-11-14T00:11:15.792Z,7.67
2022-11-14T00:14:02.369Z,7.65
2022-11-14T00:16:49.225Z,7.58
2022-11-14T00:19:35.729Z,7.50
2022-11-14T00:22:22.520Z,7.52
2022-11-14T00:25:10.835Z,7.49
2022-11-14T00:27:59.720Z,7.64
2022-11-14T00:30:48.327Z,7.53
2022-11-14T00:33:34.968Z,7.52
2022-11-14T00:36:21.636Z,7.53
2022-11-14T00:39:08.193Z,7.40
2022-11-14T00:41:55.082Z,7.46
2022-11-14T00:44:43.237Z,7.60
2022-11-14T00:47:29.637Z,7.33
2022-11-14T00:50:16.777Z,7.31
2022-11-14T00:53:03.567Z,7.31
2022-11-14T00:55:50.234Z,7.47
2022-11-14T00:58:36.825Z,7.43
2022-11-14T01:01:25.152Z,7.54
2022-11-14T01:04:11.806Z,7.38
2022-11-14T01:06:58.185Z,7.51
2022-11-14T01:09:44.934Z,7.38
2022-11-14T01:12:31.582Z,7.43
2022-11-14T01:15:17.969Z,7.46
2022-11-14T01:18:05.993Z,7.39
2022-11-14T01:20:52.620Z,7.27
2022-11-14T01:23:38.940Z,7.34
2022-11-14T01:26:25.658Z,7.45
2022-11-14T01:29:12.751Z,7.33
2022-11-14T01:31:59.056Z,7.41
2022-11-14T01:34:47.665Z,7.43
2022-11-14T01:37:34.191Z,7.39
2022-11-14T01:40:21.074Z,7.46
2022-11-14T01:43:24.544Z,7.50
2022-11-14T01:46:14.469Z,7.36
2022-11-14T01:49:03.277Z,7.51
2022-11-14T01:51:54.673Z,7.25
2022-11-14T01:54:44.757Z,7.30
2022-11-14T01:57:36.395Z,7.48
2022-11-14T02:00:22.688Z,7.59
2022-11-14T02:03:09.295Z,7.61
2022-11-14T02:05:56.669Z,7.48
2022-11-14T02:08:44.862Z,7.69
2022-11-14T02:11:33.125Z,7.59
2022-11-14T02:14:19.585Z,7.51
2022-11-14T02:20:20.203Z,7.53
2022-11-14T02:23:06.477Z,7.49
2022-11-14T02:25:53.025Z,7.53
2022-11-14T02:28:40.128Z,7.56
2022-11-14T02:31:26.972Z,7.41
2022-11-14T02:34:16.830Z,7.39
2022-11-14T02:37:04.693Z,7.51
2022-11-14T02:39:51.251Z,7.52
2022-11-14T02:42:38.038Z,7.38
2022-11-14T02:45:24.414Z,7.50
2022-11-14T02:48:10.837Z,7.49
2022-11-14T02:50:57.413Z,7.59
2022-11-14T02:53:45.325Z,7.43
2022-11-14T02:56:31.860Z,7.53
2022-11-14T02:59:18.221Z,7.42
2022-11-14T03:02:05.511Z,7.54
2022-11-14T03:04:52.008Z,7.59
2022-11-14T03:07:38.814Z,7.47
2022-11-14T03:10:27.682Z,7.53
2022-11-14T03:13:13.962Z,7.27
2022-11-14T03:16:07.092Z,7.35
2022-11-14T03:18:53.843Z,7.47
2022-11-14T03:21:40.453Z,7.56
2022-11-14T03:24:26.956Z,7.50
2022-11-14T03:27:15.106Z,7.69
2022-11-14T03:30:01.992Z,7.56
2022-11-14T03:32:48.509Z,7.55
2022-11-14T03:35:35.242Z,7.56
2022-11-14T03:38:23.140Z,7.57
2022-11-14T03:41:10.013Z,7.72
2022-11-14T03:43:57.760Z,7.90
2022-11-14T03:46:44.522Z,7.72
2022-11-14T03:49:31.033Z,7.62
2022-11-14T03:52:17.428Z,7.73
2022-11-14T03:55:04.839Z,7.71
2022-11-14T03:57:51.238Z,7.57
2022-11-14T04:00:39.943Z,7.82
2022-11-14T04:03:26.962Z,7.83
2022-11-14T04:06:13.858Z,7.59
2022-11-14T04:09:01.341Z,7.61
2022-11-14T04:11:47.676Z,7.69
2022-11-14T04:14:34.478Z,7.71
2022-11-14T04:17:22.456Z,7.67
2022-11-14T04:20:09.635Z,7.69
2022-11-14T04:22:56.165Z,7.69
2022-11-14T04:25:44.384Z,7.78
2022-11-14T04:28:31.345Z,7.63
2022-11-14T04:31:18.148Z,7.69
2022-11-14T04:34:06.167Z,7.91
2022-11-14T04:36:53.318Z,7.52
2022-11-14T04:39:39.782Z,7.65
2022-11-14T04:42:26.516Z,7.67
2022-11-14T04:45:13.070Z,7.64
2022-11-14T04:47:59.610Z,7.55
2022-11-14T04:50:47.971Z,7.56
2022-11-14T04:53:34.382Z,7.62
2022-11-14T04:56:23.338Z,7.54
2022-11-14T04:59:10.153Z,7.62
2022-11-14T05:01:59.300Z,7.59
2022-11-14T05:04:47.290Z,7.75
2022-11-14T05:07:35.343Z,7.54
2022-11-14T05:10:22.232Z,7.63
2022-11-14T05:13:08.650Z,7.60
2022-11-14T05:15:55.111Z,7.49
2022-11-14T05:18:46.904Z,7.40
2022-11-14T05:21:35.293Z,7.55
2022-11-14T05:24:23.098Z,7.49
2022-11-14T05:27:09.475Z,7.51
2022-11-14T05:29:56.473Z,7.56
2022-11-14T05:32:42.919Z,7.81
2022-11-14T05:35:29.587Z,7.72
2022-11-14T05:38:16.284Z,7.75
2022-11-14T05:41:08.348Z,7.58
2022-11-14T05:43:54.995Z,7.58
2022-11-14T05:46:41.531Z,7.68
2022-11-14T05:49:28.072Z,7.60
2022-11-14T05:52:14.832Z,7.48
2022-11-14T05:55:01.070Z,7.49
2022-11-14T05:57:49.055Z,7.61
2022-11-14T06:00:41.912Z,7.41
2022-11-14T06:03:34.826Z,7.48
2022-11-14T06:06:22.280Z,7.61
2022-11-14T06:09:08.921Z,7.58
2022-11-14T06:11:55.268Z,7.45
2022-11-14T06:14:43.014Z,7.55
2022-11-14T06:17:29.516Z,7.56
2022-11-14T06:20:16.189Z,7.44
2022-11-14T06:23:02.482Z,7.49
2022-11-14T06:25:49.312Z,7.51
2022-11-14T06:28:36.040Z,7.56
2022-11-14T06:31:24.348Z,7.62
2022-11-14T06:34:12.497Z,7.54
2022-11-14T06:36:59.031Z,7.45
2022-11-14T06:39:45.301Z,7.62
2022-11-14T06:42:32.103Z,7.53
2022-11-14T06:45:18.759Z,7.54
2022-11-14T06:48:07.002Z,7.55
2022-11-14T06:50:54.375Z,7.68
2022-11-14T06:53:42.158Z,7.59
2022-11-14T06:56:28.748Z,7.51
2022-11-14T06:59:15.540Z,7.48
2022-11-14T07:02:02.051Z,7.41
2022-11-14T07:04:49.815Z,7.47
2022-11-14T07:07:38.644Z,7.66
2022-11-14T07:10:25.035Z,7.76
2022-11-14T07:13:12.328Z,7.81
2022-11-14T07:15:58.625Z,7.74
2022-11-14T07:18:45.220Z,7.63
2022-11-14T07:21:34.930Z,7.81
2022-11-14T07:24:21.493Z,7.88
2022-11-14T07:27:09.345Z,7.77
2022-11-14T07:29:56.115Z,7.70
2022-11-14T07:32:42.662Z,7.85
2022-11-14T07:35:29.392Z,7.85
2022-11-14T07:38:17.274Z,7.91
2022-11-14T07:41:05.611Z,7.94
2022-11-14T07:43:52.089Z,7.99
2022-11-14T07:46:38.477Z,7.87
2022-11-14T07:49:25.134Z,8.18
2022-11-14T07:52:14.639Z,7.94
2022-11-14T07:55:02.624Z,8.10
2022-11-14T07:57:49.800Z,8.12
2022-11-14T08:00:36.614Z,8.21
2022-11-14T08:03:23.264Z,8.13
2022-11-14T08:06:11.680Z,8.17
2022-11-14T08:08:58.359Z,8.23
2022-11-14T08:11:49.227Z,8.32
2022-11-14T08:14:35.904Z,8.51
2022-11-14T08:17:25.433Z,8.33
2022-11-14T08:20:12.597Z,8.39
2022-11-14T08:23:03.631Z,8.31
2022-11-14T08:25:50.481Z,8.39
2022-11-14T08:28:40.335Z,8.33
2022-11-14T08:31:27.209Z,8.50
2022-11-14T08:34:13.639Z,8.48
2022-11-14T08:36:59.963Z,8.18
2022-11-14T08:39:46.557Z,8.33
2022-11-14T08:42:33.303Z,8.44
2022-11-14T08:45:21.163Z,8.47
2022-11-14T08:48:11.470Z,8.60
2022-11-14T08:50:57.985Z,8.62
2022-11-14T08:53:44.978Z,8.60
2022-11-14T08:56:31.410Z,8.60
2022-11-14T08:59:17.863Z,8.67
2022-11-14T09:02:05.963Z,8.89
2022-11-14T09:04:52.558Z,9.11
2022-11-14T09:07:39.339Z,8.90
2022-11-14T09:10:26.719Z,9.09
2022-11-14T09:13:13.045Z,8.93
2022-11-14T09:15:59.380Z,9.02
2022-11-14T09:18:47.242Z,9.17
2022-11-14T09:21:33.680Z,9.53
2022-11-14T09:24:20.320Z,9.51
2022-11-14T09:27:07.056Z,9.63
2022-11-14T09:29:54.083Z,9.64
2022-11-14T09:32:40.466Z,9.77
2022-11-14T09:35:28.426Z,9.71
2022-11-14T09:38:14.794Z,9.79
2022-11-14T09:41:07.568Z,9.91
2022-11-14T09:44:14.197Z,10.01
2022-11-14T09:47:06.812Z,10.27
2022-11-14T09:49:55.867Z,10.15
2022-11-14T09:52:47.523Z,10.07
2022-11-14T09:55:37.125Z,10.32
2022-11-14T09:58:24.698Z,10.34
2022-11-14T10:01:19.296Z,10.20
2022-11-14T10:04:16.235Z,10.30
2022-11-14T10:07:11.487Z,10.48
2022-11-14T10:10:06.424Z,10.48
2022-11-14T10:13:02.262Z,10.56
2022-11-14T10:15:54.020Z,10.52
2022-11-14T10:18:55.817Z,10.79
2022-11-14T10:21:58.125Z,10.82
2022-11-14T10:25:20.241Z,10.47
2022-11-14T10:28:22.613Z,10.58
2022-11-14T10:31:21.559Z,10.71
2022-11-14T10:34:13.889Z,10.53
2022-11-14T10:37:07.571Z,10.78
2022-11-14T10:39:56.559Z,10.59
2022-11-14T10:42:45.836Z,10.55
2022-11-14T10:45:39.043Z,10.47
2022-11-14T10:48:32.155Z,10.38
2022-11-14T10:51:22.301Z,10.50
2022-11-14T10:54:14.988Z,10.48
2022-11-14T10:57:01.597Z,10.67
2022-11-14T10:59:49.575Z,10.69
2022-11-14T11:02:49.735Z,10.52
2022-11-14T11:05:48.401Z,10.59
2022-11-14T11:08:56.430Z,10.67
2022-11-14T11:11:43.300Z,10.64
2022-11-14T11:14:30.645Z,10.66
2022-11-14T11:17:34.931Z,10.66
2022-11-14T11:20:33.586Z,10.84
2022-11-14T11:23:23.451Z,10.60
2022-11-14T11:26:21.911Z,10.52
2022-11-14T11:29:17.646Z,10.61
2022-11-14T11:32:11.054Z,10.63
2022-11-14T11:35:04.352Z,10.57
2022-11-14T11:37:55.700Z,10.69
2022-11-14T11:40:45.413Z,10.35
2022-11-14T11:43:53.902Z,10.48
2022-11-14T11:46:48.801Z,10.34
2022-11-14T11:49:48.614Z,10.38
2022-11-14T11:52:42.602Z,10.25
2022-11-14T11:55:33.376Z,10.30
2022-11-14T11:58:25.354Z,10.33
2022-11-14T12:01:14.975Z,10.65
2022-11-14T12:04:04.151Z,10.51
2022-11-14T12:06:57.312Z,10.45
2022-11-14T12:10:09.766Z,10.45
2022-11-14T12:13:39.869Z,10.49
2022-11-14T12:16:59.745Z,10.41
2022-11-14T12:20:07.434Z,10.42
2022-11-14T12:23:12.116Z,10.27
2022-11-14T12:26:19.881Z,10.33
2022-11-14T12:29:25.518Z,10.38
2022-11-14T12:32:16.979Z,10.42
2022-11-14T12:35:09.907Z,10.40
2022-11-14T12:37:58.576Z,10.52
2022-11-14T12:40:52.053Z,10.33
2022-11-14T12:43:44.166Z,10.31
2022-11-14T12:47:15.581Z,10.32
2022-11-14T12:50:42.338Z,10.32
2022-11-14T12:53:44.400Z,10.48
2022-11-14T12:57:00.907Z,10.47
2022-11-14T13:00:00.999Z,10.71
2022-11-14T13:03:22.315Z,10.65
2022-11-14T13:06:15.097Z,10.57
2022-11-14T13:09:37.232Z,10.71
2022-11-14T13:12:47.199Z,10.90
2022-11-14T13:16:09.268Z,10.97
2022-11-14T13:19:17.898Z,10.81
2022-11-14T13:22:38.259Z,10.90
2022-11-14T13:25:25.614Z,10.92
2022-11-14T13:28:48.129Z,10.85
2022-11-14T13:31:48.361Z,10.89
2022-11-14T13:34:40.466Z,10.72
2022-11-14T13:37:40.402Z,10.82
2022-11-14T13:40:29.986Z,10.77
2022-11-14T13:43:21.150Z,10.74
2022-11-14T13:46:13.697Z,10.87
2022-11-14T13:49:21.880Z,10.89
2022-11-14T13:52:08.963Z,10.53
2022-11-14T13:54:55.619Z,10.25
2022-11-14T13:57:48.689Z,10.40
2022-11-14T14:00:54.702Z,10.18
2022-11-14T14:03:59.893Z,10.09
2022-11-14T14:06:59.147Z,9.98
2022-11-14T14:09:52.099Z,9.62
2022-11-14T14:12:48.044Z,9.73
2022-11-14T14:15:39.076Z,9.72
2022-11-14T14:18:33.972Z,9.54
2022-11-14T14:21:30.666Z,9.38
2022-11-14T14:24:34.542Z,9.45
2022-11-14T14:27:26.185Z,9.27
2022-11-14T14:30:14.348Z,9.29
2022-11-14T14:33:11.206Z,9.16
2022-11-14T14:35:58.168Z,9.10
2022-11-14T14:38:45.059Z,9.07
2022-11-14T14:41:36.219Z,9.10
2022-11-14T14:44:28.494Z,9.00
2022-11-14T14:47:32.467Z,8.90
2022-11-14T14:50:20.851Z,9.07
2022-11-14T14:53:07.707Z,9.16
2022-11-14T14:55:56.499Z,9.02
2022-11-14T14:58:44.733Z,8.89
2022-11-14T15:01:34.174Z,8.96
2022-11-14T15:04:21.917Z,8.86
2022-11-14T15:07:20.101Z,8.88
2022-11-14T15:10:07.981Z,8.80
2022-11-14T15:12:54.652Z,8.71
2022-11-14T15:15:43.261Z,8.79
2022-11-14T15:18:32.141Z,8.84
2022-11-14T15:21:27.331Z,8.82
2022-11-14T15:24:17.090Z,8.66
2022-11-14T15:27:05.950Z,8.70
2022-11-14T15:29:54.536Z,8.69
2022-11-14T15:32:49.548Z,8.73
2022-11-14T15:35:36.798Z,8.79
2022-11-14T15:41:31.905Z,8.79
2022-11-14T15:44:31.432Z,8.90
2022-11-14T15:47:25.745Z,8.83
2022-11-14T15:50:29.466Z,8.82
2022-11-14T15:53:23.048Z,8.75
2022-11-14T15:56:12.332Z,8.61
2022-11-14T15:58:58.879Z,8.79
2022-11-14T16:01:47.461Z,8.72
2022-11-14T16:04:35.381Z,8.71
2022-11-14T16:07:23.601Z,8.68
2022-11-14T16:10:15.672Z,8.71
2022-11-14T16:13:02.871Z,8.77
2022-11-14T16:15:49.415Z,8.76
2022-11-14T16:18:36.080Z,8.80
2022-11-14T16:21:22.450Z,8.69
2022-11-14T16:24:15.839Z,8.70
2022-11-14T16:27:02.163Z,8.71
2022-11-14T16:29:49.411Z,8.55
2022-11-14T16:32:35.796Z,8.68
2022-11-14T16:35:24.029Z,8.53
2022-11-14T16:38:13.783Z,8.63
2022-11-14T16:41:01.801Z,8.64
2022-11-14T16:43:48.742Z,8.65
2022-11-14T16:46:35.502Z,8.54
2022-11-14T16:49:22.030Z,8.56
2022-11-14T16:52:10.907Z,8.40
2022-11-14T16:54:57.405Z,8.63
2022-11-14T16:57:45.127Z,8.54
2022-11-14T17:00:32.431Z,8.46
2022-11-14T17:03:19.247Z,8.56
2022-11-14T17:06:10.556Z,8.48
2022-11-14T17:08:57.408Z,8.53
2022-11-14T17:11:45.550Z,8.54
2022-11-14T17:14:33.859Z,8.46
2022-11-14T17:17:21.538Z,8.44
2022-11-14T17:20:10.903Z,8.49
2022-11-14T17:22:58.201Z,8.60
2022-11-14T17:25:45.406Z,8.44
2022-11-14T17:28:32.750Z,8.50
2022-11-14T17:31:21.332Z,8.40
2022-11-14T17:34:10.592Z,8.43
2022-11-14T17:36:58.866Z,8.57
2022-11-14T17:39:46.753Z,8.41
2022-11-14T17:42:33.499Z,8.42
2022-11-14T17:45:21.896Z,8.39
2022-11-14T17:48:17.360Z,8.39
2022-11-14T17:51:15.442Z,8.24
2022-11-14T17:54:07.004Z,8.33
2022-11-14T17:57:00.180Z,8.29
2022-11-14T17:59:52.486Z,8.36
2022-11-14T18:02:56.890Z,8.19
2022-11-14T18:05:53.468Z,8.22
2022-11-14T18:08:46.350Z,8.27
2022-11-14T18:11:39.130Z,8.12
2022-11-14T18:14:35.127Z,8.21
2022-11-14T18:17:26.176Z,8.28
2022-11-14T18:20:19.809Z,8.24
2022-11-14T18:23:14.711Z,8.30
2022-11-14T18:26:29.552Z,8.26
2022-11-14T18:29:18.783Z,8.22
2022-11-14T18:32:27.639Z,8.20
2022-11-14T18:35:32.006Z,8.24
2022-11-14T18:38:42.424Z,8.26
2022-11-14T18:41:42.862Z,8.17
2022-11-14T18:44:34.116Z,8.20
2022-11-14T18:47:33.528Z,8.27
2022-11-14T18:50:31.705Z,8.19
2022-11-14T18:53:31.119Z,8.24
2022-11-14T18:56:29.647Z,8.18
2022-11-14T18:59:29.175Z,8.25
2022-11-14T19:02:26.304Z,8.26
2022-11-14T19:05:26.388Z,8.14
2022-11-14T19:08:20.420Z,8.13
2022-11-14T19:11:34.092Z,8.09
2022-11-14T19:14:32.923Z,8.04
2022-11-14T19:17:24.453Z,8.00
2022-11-14T19:20:29.588Z,7.91
2022-11-14T19:23:28.060Z,7.90
2022-11-14T19:26:29.501Z,7.91
2022-11-14T19:29:20.655Z,7.72
2022-11-14T19:32:37.924Z,7.83
2022-11-14T19:35:31.808Z,7.95
2022-11-14T19:38:30.633Z,7.71
2022-11-14T19:41:45.663Z,7.63
2022-11-14T19:44:37.498Z,7.82
2022-11-14T19:47:41.225Z,7.69
2022-11-14T19:50:38.294Z,7.55
2022-11-14T19:53:33.854Z,7.62
2022-11-14T19:56:30.810Z,7.63
2022-11-14T19:59:24.363Z,7.60
2022-11-14T20:02:18.186Z,7.80
2022-11-14T20:05:13.053Z,7.90
2022-11-14T20:08:16.972Z,7.67
2022-11-14T20:11:13.925Z,7.67
2022-11-14T20:14:09.384Z,7.75
2022-11-14T20:17:13.519Z,7.82
2022-11-14T20:20:04.267Z,7.90
2022-11-14T20:23:14.654Z,7.85
2022-11-14T20:26:15.208Z,7.69
2022-11-14T20:29:19.506Z,7.74
2022-11-14T20:32:24.888Z,7.90
2022-11-14T20:35:27.017Z,7.92
2022-11-14T20:38:19.952Z,7.78
2022-11-14T20:41:19.983Z,7.94
2022-11-14T20:44:14.566Z,7.82
2022-11-14T20:47:10.940Z,7.73
2022-11-14T20:50:13.369Z,7.77
2022-11-14T20:53:03.068Z,7.90
2022-11-14T20:56:03.847Z,7.96
2022-11-14T20:58:53.061Z,7.79
2022-11-14T21:01:48.055Z,7.78
2022-11-14T21:04:46.582Z,7.76
2022-11-14T21:07:37.600Z,7.75
2022-11-14T21:10:53.093Z,7.90
2022-11-14T21:14:08.522Z,7.74
2022-11-14T21:17:04.763Z,7.92
2022-11-14T21:19:55.432Z,7.89
2022-11-14T21:22:45.728Z,7.86
2022-11-14T21:25:43.433Z,7.68
2022-11-14T21:28:40.701Z,7.73
2022-11-14T21:31:46.463Z,7.78
2022-11-14T21:34:43.499Z,7.71
2022-11-14T21:37:40.091Z,7.67
2022-11-14T21:40:43.804Z,7.62
2022-11-14T21:43:33.793Z,7.70
2022-11-14T21:46:24.947Z,7.68
2022-11-14T21:49:29.883Z,7.67
2022-11-14T21:52:19.816Z,7.67
2022-11-14T21:55:17.954Z,7.69
2022-11-14T21:58:11.003Z,7.50
2022-11-14T22:01:08.253Z,7.57
2022-11-14T22:04:14.899Z,7.69
2022-11-14T22:07:17.576Z,7.55
2022-11-14T22:10:14.787Z,7.69
2022-11-14T22:13:02.366Z,7.59
2022-11-14T22:15:50.824Z,7.79
2022-11-14T22:18:41.993Z,7.70
2022-11-14T22:21:28.751Z,7.62
2022-11-14T22:24:29.530Z,7.58
2022-11-14T22:27:23.210Z,7.60
2022-11-14T22:30:19.841Z,7.64
2022-11-14T22:33:16.099Z,7.49
2022-11-14T22:36:27.281Z,7.53
2022-11-14T22:39:18.393Z,7.72
2022-11-14T22:42:10.990Z,7.75
2022-11-14T22:45:02.792Z,7.80
2022-11-14T22:47:50.097Z,7.87
2022-11-14T22:50:52.315Z,7.87
2022-11-14T22:53:42.860Z,7.71
2022-11-14T22:56:36.664Z,7.96
2022-11-14T22:59:35.359Z,7.73
2022-11-14T23:02:26.264Z,7.76
2022-11-14T23:05:13.717Z,7.81
2022-11-14T23:08:04.493Z,7.79
2022-11-14T23:11:00.156Z,7.70
2022-11-14T23:13:55.024Z,7.92
2022-11-14T23:16:55.082Z,7.89
2022-11-14T23:19:54.793Z,7.69
2022-11-14T23:22:46.011Z,7.96
2022-11-14T23:25:45.168Z,7.78
2022-11-14T23:28:36.009Z,7.80
2022-11-14T23:31:25.960Z,7.69
2022-11-14T23:34:16.581Z,7.82
2022-11-14T23:37:07.860Z,7.92
2022-11-14T23:40:02.196Z,8.00
2022-11-14T23:42:51.955Z,7.92
2022-11-14T23:45:44.241Z,7.93
2022-11-14T23:48:33.673Z,7.96
2022-11-14T23:51:30.050Z,7.97
2022-11-14T23:54:21.166Z,8.02
2022-11-14T23:57:11.765Z,7.87
2022-11-14T23:59:59.412Z,7.97
